sensor_id;sensor_type;location;lat;lon;timestamp;pressure;altitude;pressure_sealevel;temperature;humidity
59787;BME280;45672;51.612;5.536;2023-07-31T00:01:10;100856.41;;;15.67;100.00
59787;BME280;45672;51.612;5.536;2023-07-31T00:03:35;100857.44;;;15.66;100.00
59787;BME280;45672;51.612;5.536;2023-07-31T00:06:01;100864.00;;;15.63;100.00
59787;BME280;45672;51.612;5.536;2023-07-31T00:08:26;100853.47;;;15.62;100.00
59787;BME280;45672;51.612;5.536;2023-07-31T00:10:52;100873.72;;;15.64;100.00
59787;BME280;45672;51.612;5.536;2023-07-31T00:13:18;100866.69;;;15.63;100.00
59787;BME280;45672;51.612;5.536;2023-07-31T00:15:43;100862.34;;;15.62;100.00
59787;BME280;45672;51.612;5.536;2023-07-31T00:18:08;100853.09;;;15.65;100.00
59787;BME280;45672;51.612;5.536;2023-07-31T00:20:34;100865.84;;;15.63;100.00
59787;BME280;45672;51.612;5.536;2023-07-31T00:22:59;100859.19;;;15.59;100.00
59787;BME280;45672;51.612;5.536;2023-07-31T00:25:24;100856.34;;;15.60;100.00
59787;BME280;45672;51.612;5.536;2023-07-31T00:27:50;100851.16;;;15.59;100.00
59787;BME280;45672;51.612;5.536;2023-07-31T00:30:15;100844.63;;;15.46;100.00
59787;BME280;45672;51.612;5.536;2023-07-31T00:32:41;100844.31;;;15.56;100.00
59787;BME280;45672;51.612;5.536;2023-07-31T00:35:06;100842.66;;;15.55;100.00
59787;BME280;45672;51.612;5.536;2023-07-31T00:37:32;100843.97;;;15.59;100.00
59787;BME280;45672;51.612;5.536;2023-07-31T00:39:57;100841.91;;;15.61;100.00
59787;BME280;45672;51.612;5.536;2023-07-31T00:42:24;100851.81;;;15.61;100.00
59787;BME280;45672;51.612;5.536;2023-07-31T00:44:50;100843.78;;;15.61;100.00
59787;BME280;45672;51.612;5.536;2023-07-31T00:47:15;100829.81;;;15.50;100.00
59787;BME280;45672;51.612;5.536;2023-07-31T00:49:41;100852.00;;;15.59;100.00
59787;BME280;45672;51.612;5.536;2023-07-31T00:52:07;100844.13;;;15.58;100.00
59787;BME280;45672;51.612;5.536;2023-07-31T00:54:32;100835.25;;;15.57;100.00
59787;BME280;45672;51.612;5.536;2023-07-31T00:56:59;100836.94;;;15.58;100.00
59787;BME280;45672;51.612;5.536;2023-07-31T00:59:24;100836.94;;;15.58;100.00
59787;BME280;45672;51.612;5.536;2023-07-31T01:01:50;100819.75;;;15.52;100.00
59787;BME280;45672;51.612;5.536;2023-07-31T01:04:17;100822.22;;;15.54;100.00
59787;BME280;45672;51.612;5.536;2023-07-31T01:11:56;100830.91;;;15.56;100.00
59787;BME280;45672;51.612;5.536;2023-07-31T01:14:22;100822.03;;;15.56;100.00
59787;BME280;45672;51.612;5.536;2023-07-31T01:16:47;100825.72;;;15.55;100.00
59787;BME280;45672;51.612;5.536;2023-07-31T01:19:14;100826.59;;;15.55;100.00
59787;BME280;45672;51.612;5.536;2023-07-31T01:26:57;100823.41;;;15.66;100.00
59787;BME280;45672;51.612;5.536;2023-07-31T01:29:34;100828.00;;;15.73;100.00
59787;BME280;45672;51.612;5.536;2023-07-31T01:32:02;100823.94;;;15.77;100.00
59787;BME280;45672;51.612;5.536;2023-07-31T01:34:30;100829.09;;;15.78;100.00
59787;BME280;45672;51.612;5.536;2023-07-31T01:36:56;100832.28;;;15.82;100.00
59787;BME280;45672;51.612;5.536;2023-07-31T01:39:23;100824.22;;;15.82;100.00
59787;BME280;45672;51.612;5.536;2023-07-31T01:41:48;100824.84;;;15.84;100.00
59787;BME280;45672;51.612;5.536;2023-07-31T01:44:14;100814.13;;;15.84;100.00
59787;BME280;45672;51.612;5.536;2023-07-31T01:46:39;100826.53;;;15.85;100.00
59787;BME280;45672;51.612;5.536;2023-07-31T01:49:05;100814.13;;;15.84;100.00
59787;BME280;45672;51.612;5.536;2023-07-31T01:51:31;100805.88;;;15.85;100.00
59787;BME280;45672;51.612;5.536;2023-07-31T01:53:59;100806.16;;;15.91;100.00
59787;BME280;45672;51.612;5.536;2023-07-31T01:56:25;100807.16;;;15.90;100.00
59787;BME280;45672;51.612;5.536;2023-07-31T01:58:50;100813.34;;;15.90;100.00
59787;BME280;45672;51.612;5.536;2023-07-31T02:01:15;100809.66;;;15.91;100.00
59787;BME280;45672;51.612;5.536;2023-07-31T02:03:41;100807.78;;;15.92;100.00
59787;BME280;45672;51.612;5.536;2023-07-31T02:06:07;100814.00;;;15.92;100.00
59787;BME280;45672;51.612;5.536;2023-07-31T02:08:32;100806.97;;;15.91;100.00
59787;BME280;45672;51.612;5.536;2023-07-31T02:10:58;100799.94;;;15.90;100.00
59787;BME280;45672;51.612;5.536;2023-07-31T02:13:23;100798.47;;;15.88;100.00
59787;BME280;45672;51.612;5.536;2023-07-31T02:15:48;100799.13;;;15.90;100.00
59787;BME280;45672;51.612;5.536;2023-07-31T02:18:14;100800.53;;;15.85;100.00
59787;BME280;45672;51.612;5.536;2023-07-31T02:20:39;100784.00;;;15.82;100.00
59787;BME280;45672;51.612;5.536;2023-07-31T02:23:04;100787.31;;;15.84;100.00
59787;BME280;45672;51.612;5.536;2023-07-31T02:25:29;100783.13;;;15.81;100.00
59787;BME280;45672;51.612;5.536;2023-07-31T02:27:55;100776.28;;;15.79;100.00
59787;BME280;45672;51.612;5.536;2023-07-31T02:30:20;100778.66;;;15.89;100.00
59787;BME280;45672;51.612;5.536;2023-07-31T02:32:46;100787.19;;;15.92;100.00
59787;BME280;45672;51.612;5.536;2023-07-31T02:35:11;100768.19;;;15.94;100.00
59787;BME280;45672;51.612;5.536;2023-07-31T02:37:40;100774.19;;;15.96;100.00
59787;BME280;45672;51.612;5.536;2023-07-31T02:40:06;100782.03;;;15.97;100.00
59787;BME280;45672;51.612;5.536;2023-07-31T02:42:32;100769.88;;;15.95;100.00
59787;BME280;45672;51.612;5.536;2023-07-31T02:44:57;100771.78;;;16.01;100.00
59787;BME280;45672;51.612;5.536;2023-07-31T02:47:22;100764.72;;;16.00;100.00
59787;BME280;45672;51.612;5.536;2023-07-31T02:49:48;100763.06;;;15.99;100.00
59787;BME280;45672;51.612;5.536;2023-07-31T02:52:13;100763.72;;;16.01;100.00
59787;BME280;45672;51.612;5.536;2023-07-31T02:54:38;100775.47;;;16.00;100.00
59787;BME280;45672;51.612;5.536;2023-07-31T02:57:04;100761.22;;;15.99;100.00
59787;BME280;45672;51.612;5.536;2023-07-31T02:59:30;100766.59;;;15.99;100.00
59787;BME280;45672;51.612;5.536;2023-07-31T03:01:55;100768.44;;;15.99;100.00
59787;BME280;45672;51.612;5.536;2023-07-31T03:04:21;100763.25;;;15.97;100.00
59787;BME280;45672;51.612;5.536;2023-07-31T03:06:46;100763.91;;;15.99;100.00
59787;BME280;45672;51.612;5.536;2023-07-31T03:09:11;100760.03;;;16.02;100.00
59787;BME280;45672;51.612;5.536;2023-07-31T03:11:36;100755.22;;;15.97;100.00
59787;BME280;45672;51.612;5.536;2023-07-31T03:14:02;100754.41;;;15.97;100.00
59787;BME280;45672;51.612;5.536;2023-07-31T03:16:27;100763.72;;;16.01;100.00
59787;BME280;45672;51.612;5.536;2023-07-31T03:18:54;100774.44;;;16.01;100.00
59787;BME280;45672;51.612;5.536;2023-07-31T03:21:19;100754.84;;;16.00;100.00
59787;BME280;45672;51.612;5.536;2023-07-31T03:23:44;100762.72;;;16.02;100.00
59787;BME280;45672;51.612;5.536;2023-07-31T03:26:10;100751.31;;;16.00;100.00
59787;BME280;45672;51.612;5.536;2023-07-31T03:28:35;100765.19;;;16.03;100.00
59787;BME280;45672;51.612;5.536;2023-07-31T03:31:01;100748.81;;;15.98;100.00
59787;BME280;45672;51.612;5.536;2023-07-31T03:33:27;100756.09;;;16.05;100.00
59787;BME280;45672;51.612;5.536;2023-07-31T03:35:52;100749.91;;;16.04;100.00
59787;BME280;45672;51.612;5.536;2023-07-31T03:38:19;100755.09;;;16.06;100.00
59787;BME280;45672;51.612;5.536;2023-07-31T03:40:44;100738.34;;;16.03;100.00
59787;BME280;45672;51.612;5.536;2023-07-31T03:43:10;100736.69;;;16.02;100.00
59787;BME280;45672;51.612;5.536;2023-07-31T03:45:35;100736.69;;;16.02;100.00
59787;BME280;45672;51.612;5.536;2023-07-31T03:48:00;100726.78;;;16.03;100.00
59787;BME280;45672;51.612;5.536;2023-07-31T03:50:26;100732.13;;;16.03;100.00
59787;BME280;45672;51.612;5.536;2023-07-31T03:52:52;100721.41;;;16.03;100.00
59787;BME280;45672;51.612;5.536;2023-07-31T03:55:17;100717.72;;;16.04;100.00
59787;BME280;45672;51.612;5.536;2023-07-31T03:57:43;100716.44;;;16.00;100.00
59787;BME280;45672;51.612;5.536;2023-07-31T04:00:09;100720.19;;;16.06;100.00
59787;BME280;45672;51.612;5.536;2023-07-31T04:02:34;100718.16;;;16.08;100.00
59787;BME280;45672;51.612;5.536;2023-07-31T04:04:59;100712.59;;;16.09;100.00
59787;BME280;45672;51.612;5.536;2023-07-31T04:07:25;100709.72;;;16.11;100.00
59787;BME280;45672;51.612;5.536;2023-07-31T04:09:50;100702.47;;;16.11;100.00
59787;BME280;45672;51.612;5.536;2023-07-31T04:12:15;100705.63;;;16.15;100.00
59787;BME280;45672;51.612;5.536;2023-07-31T04:14:41;100711.59;;;16.17;100.00
59787;BME280;45672;51.612;5.536;2023-07-31T04:17:06;100712.88;;;16.21;100.00
59787;BME280;45672;51.612;5.536;2023-07-31T04:19:31;100703.81;;;16.22;100.00
59787;BME280;45672;51.612;5.536;2023-07-31T04:21:56;100698.44;;;16.22;100.00
59787;BME280;45672;51.612;5.536;2023-07-31T04:24:22;100705.91;;;16.27;100.00
59787;BME280;45672;51.612;5.536;2023-07-31T04:26:53;100708.59;;;16.27;100.00
59787;BME280;45672;51.612;5.536;2023-07-31T04:29:18;100706.72;;;16.27;100.00
59787;BME280;45672;51.612;5.536;2023-07-31T04:31:44;100699.13;;;16.31;100.00
59787;BME280;45672;51.612;5.536;2023-07-31T04:34:09;100693.75;;;16.31;100.00
59787;BME280;45672;51.612;5.536;2023-07-31T04:36:35;100700.13;;;16.30;100.00
59787;BME280;45672;51.612;5.536;2023-07-31T04:39:01;100707.41;;;16.36;100.00
59787;BME280;45672;51.612;5.536;2023-07-31T04:41:26;100696.03;;;16.34;100.00
59787;BME280;45672;51.612;5.536;2023-07-31T04:43:52;100697.09;;;16.40;100.00
59787;BME280;45672;51.612;5.536;2023-07-31T04:46:17;100673.88;;;16.25;100.00
59787;BME280;45672;51.612;5.536;2023-07-31T04:48:42;100681.88;;;16.18;100.00
59787;BME280;45672;51.612;5.536;2023-07-31T04:51:08;100687.22;;;16.12;100.00
59787;BME280;45672;51.612;5.536;2023-07-31T04:53:34;100676.50;;;16.12;100.00
59787;BME280;45672;51.612;5.536;2023-07-31T04:55:59;100681.47;;;16.15;100.00
59787;BME280;45672;51.612;5.536;2023-07-31T04:58:25;100679.00;;;16.20;100.00
59787;BME280;45672;51.612;5.536;2023-07-31T05:00:50;100668.72;;;16.24;100.00
59787;BME280;45672;51.612;5.536;2023-07-31T05:03:15;100671.44;;;16.30;100.00
59787;BME280;45672;51.612;5.536;2023-07-31T05:05:41;100669.19;;;16.34;100.00
59787;BME280;45672;51.612;5.536;2023-07-31T05:08:06;100667.56;;;16.40;100.00
59787;BME280;45672;51.612;5.536;2023-07-31T05:10:31;100658.91;;;16.44;100.00
59787;BME280;45672;51.612;5.536;2023-07-31T05:12:56;100666.75;;;16.46;100.00
59787;BME280;45672;51.612;5.536;2023-07-31T05:15:22;100663.91;;;16.47;100.00
59787;BME280;45672;51.612;5.536;2023-07-31T05:17:47;100648.59;;;16.48;100.00
59787;BME280;45672;51.612;5.536;2023-07-31T05:20:12;100654.94;;;16.33;100.00
59787;BME280;45672;51.612;5.536;2023-07-31T05:22:38;100648.84;;;16.18;100.00
59787;BME280;45672;51.612;5.536;2023-07-31T05:25:03;100651.06;;;16.08;100.00
59787;BME280;45672;51.612;5.536;2023-07-31T05:27:29;100647.88;;;15.97;100.00
59787;BME280;45672;51.612;5.536;2023-07-31T05:29:54;100644.13;;;15.92;100.00
59787;BME280;45672;51.612;5.536;2023-07-31T05:32:20;100646.19;;;15.90;100.00
59787;BME280;45672;51.612;5.536;2023-07-31T05:34:45;100645.91;;;15.84;100.00
59787;BME280;45672;51.612;5.536;2023-07-31T05:37:10;100638.47;;;15.80;100.00
59787;BME280;45672;51.612;5.536;2023-07-31T05:39:37;100642.16;;;15.79;100.00
59787;BME280;45672;51.612;5.536;2023-07-31T05:42:02;100641.16;;;15.80;100.00
59787;BME280;45672;51.612;5.536;2023-07-31T05:44:27;100639.47;;;15.79;100.00
59787;BME280;45672;51.612;5.536;2023-07-31T05:46:53;100636.59;;;15.80;100.00
59787;BME280;45672;51.612;5.536;2023-07-31T05:49:18;100641.50;;;15.77;100.00
59787;BME280;45672;51.612;5.536;2023-07-31T05:51:43;100636.53;;;15.74;100.00
59787;BME280;45672;51.612;5.536;2023-07-31T05:54:09;100631.19;;;15.74;100.00
59787;BME280;45672;51.612;5.536;2023-07-31T05:56:34;100616.28;;;15.71;100.00
59787;BME280;45672;51.612;5.536;2023-07-31T05:58:59;100611.94;;;15.70;100.00
59787;BME280;45672;51.612;5.536;2023-07-31T06:01:25;100613.53;;;15.64;100.00
59787;BME280;45672;51.612;5.536;2023-07-31T06:03:50;100616.88;;;15.66;100.00
59787;BME280;45672;51.612;5.536;2023-07-31T06:06:15;100617.25;;;15.63;100.00
59787;BME280;45672;51.612;5.536;2023-07-31T06:08:40;100612.53;;;15.65;100.00
59787;BME280;45672;51.612;5.536;2023-07-31T06:11:06;100615.22;;;15.65;100.00
59787;BME280;45672;51.612;5.536;2023-07-31T06:13:33;100612.53;;;15.65;100.00
59787;BME280;45672;51.612;5.536;2023-07-31T06:15:59;100613.81;;;15.69;100.00
59787;BME280;45672;51.612;5.536;2023-07-31T06:18:24;100595.44;;;15.66;100.00
59787;BME280;45672;51.612;5.536;2023-07-31T06:20:50;100611.75;;;15.72;100.00
59787;BME280;45672;51.612;5.536;2023-07-31T06:23:19;100610.53;;;15.74;100.00
59787;BME280;45672;51.612;5.536;2023-07-31T06:25:44;100616.09;;;15.73;100.00
59787;BME280;45672;51.612;5.536;2023-07-31T06:28:09;100615.47;;;15.71;100.00
59787;BME280;45672;51.612;5.536;2023-07-31T06:30:34;100607.84;;;15.74;100.00
59787;BME280;45672;51.612;5.536;2023-07-31T06:33:00;100598.78;;;15.75;100.00
59787;BME280;45672;51.612;5.536;2023-07-31T06:35:25;100604.97;;;15.76;100.00
59787;BME280;45672;51.612;5.536;2023-07-31T06:37:50;100600.44;;;15.76;100.00
59787;BME280;45672;51.612;5.536;2023-07-31T06:40:16;100602.94;;;15.78;100.00
59787;BME280;45672;51.612;5.536;2023-07-31T06:42:42;100590.44;;;15.85;100.00
59787;BME280;45672;51.612;5.536;2023-07-31T06:45:07;100590.81;;;15.82;100.00
59787;BME280;45672;51.612;5.536;2023-07-31T06:47:33;100589.16;;;15.81;100.00
59787;BME280;45672;51.612;5.536;2023-07-31T06:49:58;100584.00;;;15.86;100.00
59787;BME280;45672;51.612;5.536;2023-07-31T06:52:23;100579.69;;;15.85;100.00
59787;BME280;45672;51.612;5.536;2023-07-31T06:55:03;100581.72;;;15.83;100.00
59787;BME280;45672;51.612;5.536;2023-07-31T06:57:32;100575.59;;;15.89;100.00
59787;BME280;45672;51.612;5.536;2023-07-31T06:59:58;100570.59;;;15.86;100.00
59787;BME280;45672;51.612;5.536;2023-07-31T07:02:23;100576.41;;;15.90;100.00
59787;BME280;45672;51.612;5.536;2023-07-31T07:04:49;100581.34;;;15.86;100.00
59787;BME280;45672;51.612;5.536;2023-07-31T07:07:14;100581.34;;;15.86;100.00
59787;BME280;45672;51.612;5.536;2023-07-31T07:09:40;100577.22;;;15.90;100.00
59787;BME280;45672;51.612;5.536;2023-07-31T07:12:05;100571.88;;;15.90;100.00
59787;BME280;45672;51.612;5.536;2023-07-31T07:14:31;100564.66;;;15.91;100.00
59787;BME280;45672;51.612;5.536;2023-07-31T07:16:56;100564.88;;;15.96;100.00
59787;BME280;45672;51.612;5.536;2023-07-31T07:19:21;100554.81;;;15.98;100.00
59787;BME280;45672;51.612;5.536;2023-07-31T07:21:47;100560.19;;;16.05;100.00
59787;BME280;45672;51.612;5.536;2023-07-31T07:24:12;100562.50;;;16.08;100.00
59787;BME280;45672;51.612;5.536;2023-07-31T07:26:37;100559.38;;;16.04;100.00
59787;BME280;45672;51.612;5.536;2023-07-31T07:29:02;100556.72;;;16.11;100.00
59787;BME280;45672;51.612;5.536;2023-07-31T07:31:28;100554.66;;;16.13;100.00
59787;BME280;45672;51.612;5.536;2023-07-31T07:33:53;100554.25;;;16.09;100.00
59787;BME280;45672;51.612;5.536;2023-07-31T07:36:19;100551.56;;;16.09;100.00
59787;BME280;45672;51.612;5.536;2023-07-31T07:38:44;100554.03;;;16.11;100.00
59787;BME280;45672;51.612;5.536;2023-07-31T07:41:10;100563.75;;;16.12;100.00
59787;BME280;45672;51.612;5.536;2023-07-31T07:43:35;100566.25;;;16.13;100.00
59787;BME280;45672;51.612;5.536;2023-07-31T07:46:00;100559.81;;;16.08;100.00
59787;BME280;45672;51.612;5.536;2023-07-31T07:48:25;100567.41;;;16.04;100.00
59787;BME280;45672;51.612;5.536;2023-07-31T07:50:51;100562.25;;;16.02;100.00
59787;BME280;45672;51.612;5.536;2023-07-31T07:53:16;100565.53;;;16.05;100.00
59787;BME280;45672;51.612;5.536;2023-07-31T07:55:41;100561.84;;;16.06;100.00
59787;BME280;45672;51.612;5.536;2023-07-31T07:58:08;100545.28;;;15.95;100.00
59787;BME280;45672;51.612;5.536;2023-07-31T08:00:33;100563.91;;;16.03;100.00
59787;BME280;45672;51.612;5.536;2023-07-31T08:02:58;100561.66;;;16.07;100.00
59787;BME280;45672;51.612;5.536;2023-07-31T08:05:24;100555.47;;;16.07;100.00
59787;BME280;45672;51.612;5.536;2023-07-31T08:07:49;100548.84;;;16.02;100.00
59787;BME280;45672;51.612;5.536;2023-07-31T08:10:14;100550.06;;;16.00;100.00
59787;BME280;45672;51.612;5.536;2023-07-31T08:12:40;100546.56;;;15.99;100.00
59787;BME280;45672;51.612;5.536;2023-07-31T08:15:05;100548.63;;;16.04;100.00
59787;BME280;45672;51.612;5.536;2023-07-31T08:17:31;100549.06;;;16.08;100.00
59787;BME280;45672;51.612;5.536;2023-07-31T08:19:56;100541.59;;;16.03;100.00
59787;BME280;45672;51.612;5.536;2023-07-31T08:22:23;100551.34;;;16.11;100.00
59787;BME280;45672;51.612;5.536;2023-07-31T08:24:49;100552.81;;;16.13;100.00
59787;BME280;45672;51.612;5.536;2023-07-31T08:27:14;100549.13;;;16.21;100.00
59787;BME280;45672;51.612;5.536;2023-07-31T08:29:39;100552.25;;;16.25;100.00
59787;BME280;45672;51.612;5.536;2023-07-31T08:32:05;100545.63;;;16.27;100.00
59787;BME280;45672;51.612;5.536;2023-07-31T08:34:30;100536.94;;;16.18;100.00
59787;BME280;45672;51.612;5.536;2023-07-31T08:36:56;100548.09;;;16.22;100.00
59787;BME280;45672;51.612;5.536;2023-07-31T08:39:21;100553.06;;;16.25;100.00
59787;BME280;45672;51.612;5.536;2023-07-31T08:41:47;100547.50;;;16.27;100.00
59787;BME280;45672;51.612;5.536;2023-07-31T08:44:13;100548.31;;;16.27;100.00
59787;BME280;45672;51.612;5.536;2023-07-31T08:46:40;100537.78;;;16.26;100.00
59787;BME280;45672;51.612;5.536;2023-07-31T08:49:07;100545.44;;;16.22;100.00
59787;BME280;45672;51.612;5.536;2023-07-31T08:51:34;100550.59;;;16.24;100.00
59787;BME280;45672;51.612;5.536;2023-07-31T08:54:00;100549.31;;;16.19;100.00
59787;BME280;45672;51.612;5.536;2023-07-31T08:56:26;100546.66;;;16.19;100.00
59787;BME280;45672;51.612;5.536;2023-07-31T08:58:54;100545.03;;;16.25;100.00
59787;BME280;45672;51.612;5.536;2023-07-31T09:01:20;100545.22;;;16.24;100.00
59787;BME280;45672;51.612;5.536;2023-07-31T09:03:47;100539.88;;;16.30;100.00
59787;BME280;45672;51.612;5.536;2023-07-31T09:06:13;100540.63;;;16.17;100.00
59787;BME280;45672;51.612;5.536;2023-07-31T09:08:41;100544.16;;;16.18;100.00
59787;BME280;45672;51.612;5.536;2023-07-31T09:11:07;100546.19;;;16.16;100.00
59787;BME280;45672;51.612;5.536;2023-07-31T09:13:33;100546.00;;;16.17;100.00
59787;BME280;45672;51.612;5.536;2023-07-31T09:15:59;100542.75;;;16.22;100.00
59787;BME280;45672;51.612;5.536;2023-07-31T09:18:24;100534.88;;;16.20;100.00
59787;BME280;45672;51.612;5.536;2023-07-31T09:21:03;100535.91;;;16.19;100.00
59787;BME280;45672;51.612;5.536;2023-07-31T09:23:46;100537.56;;;16.20;100.00
59787;BME280;45672;51.612;5.536;2023-07-31T09:28:56;100536.16;;;16.31;100.00
59787;BME280;45672;51.612;5.536;2023-07-31T09:31:39;100522.16;;;16.36;100.00
59787;BME280;45672;51.612;5.536;2023-07-31T09:34:05;100529.19;;;16.44;100.00
59787;BME280;45672;51.612;5.536;2023-07-31T09:36:30;100525.69;;;16.43;100.00
59787;BME280;45672;51.612;5.536;2023-07-31T09:39:01;100508.53;;;16.37;100.00
59787;BME280;45672;51.612;5.536;2023-07-31T09:41:27;100502.72;;;16.34;100.00
59787;BME280;45672;51.612;5.536;2023-07-31T09:43:53;100514.72;;;16.38;100.00
59787;BME280;45672;51.612;5.536;2023-07-31T09:46:20;100516.38;;;16.46;100.00
59787;BME280;45672;51.612;5.536;2023-07-31T09:48:46;100509.38;;;16.45;100.00
59787;BME280;45672;51.612;5.536;2023-07-31T09:51:12;100512.91;;;16.65;100.00
59787;BME280;45672;51.612;5.536;2023-07-31T09:53:37;100516.03;;;16.76;100.00
59787;BME280;45672;51.612;5.536;2023-07-31T09:56:03;100529.66;;;16.74;100.00
59787;BME280;45672;51.612;5.536;2023-07-31T09:58:34;100506.94;;;16.63;100.00
59787;BME280;45672;51.612;5.536;2023-07-31T10:01:00;100517.88;;;16.68;100.00
59787;BME280;45672;51.612;5.536;2023-07-31T10:03:27;100512.72;;;16.67;100.00
59787;BME280;45672;51.612;5.536;2023-07-31T10:05:55;100515.66;;;16.79;100.00
59787;BME280;45672;51.612;5.536;2023-07-31T10:08:26;100508.19;;;16.81;100.00
59787;BME280;45672;51.612;5.536;2023-07-31T10:10:54;100517.72;;;16.83;100.00
59787;BME280;45672;51.612;5.536;2023-07-31T10:13:20;100511.53;;;16.83;100.00
59787;BME280;45672;51.612;5.536;2023-07-31T10:15:47;100509.22;;;16.80;100.00
59787;BME280;45672;51.612;5.536;2023-07-31T10:18:13;100500.31;;;16.72;100.00
59787;BME280;45672;51.612;5.536;2023-07-31T10:20:40;100513.78;;;16.86;100.00
59787;BME280;45672;51.612;5.536;2023-07-31T10:23:06;100511.53;;;16.89;100.00
59787;BME280;45672;51.612;5.536;2023-07-31T10:25:31;100506.00;;;17.04;100.00
59787;BME280;45672;51.612;5.536;2023-07-31T10:27:58;100503.50;;;17.23;100.00
59787;BME280;45672;51.612;5.536;2023-07-31T10:30:26;100510.09;;;17.34;100.00
59787;BME280;45672;51.612;5.536;2023-07-31T10:32:52;100504.09;;;17.45;100.00
59787;BME280;45672;51.612;5.536;2023-07-31T10:35:20;100499.34;;;17.47;100.00
59787;BME280;45672;51.612;5.536;2023-07-31T10:37:47;100505.31;;;17.56;100.00
59787;BME280;45672;51.612;5.536;2023-07-31T10:40:16;100502.84;;;17.48;100.00
59787;BME280;45672;51.612;5.536;2023-07-31T10:42:50;100507.19;;;17.49;100.00
59787;BME280;45672;51.612;5.536;2023-07-31T10:45:36;100504.91;;;17.59;100.00
59787;BME280;45672;51.612;5.536;2023-07-31T10:48:04;100505.28;;;17.76;100.00
59787;BME280;45672;51.612;5.536;2023-07-31T10:50:37;100498.44;;;17.73;100.00
59787;BME280;45672;51.612;5.536;2023-07-31T10:53:03;100506.75;;;17.72;100.00
59787;BME280;45672;51.612;5.536;2023-07-31T10:55:42;100510.88;;;17.74;100.00
59787;BME280;45672;51.612;5.536;2023-07-31T10:58:11;100504.06;;;17.65;100.00
59787;BME280;45672;51.612;5.536;2023-07-31T11:00:44;100504.50;;;17.55;100.00
59787;BME280;45672;51.612;5.536;2023-07-31T11:03:12;100514.44;;;17.55;100.00
59787;BME280;45672;51.612;5.536;2023-07-31T11:08:17;100508.66;;;17.51;100.00
59787;BME280;45672;51.612;5.536;2023-07-31T11:10:45;100503.28;;;17.51;100.00
59787;BME280;45672;51.612;5.536;2023-07-31T11:13:11;100505.31;;;17.63;100.00
59787;BME280;45672;51.612;5.536;2023-07-31T11:15:36;100505.06;;;17.78;100.00
59787;BME280;45672;51.612;5.536;2023-07-31T11:18:02;100502.31;;;18.04;100.00
59787;BME280;45672;51.612;5.536;2023-07-31T11:20:35;100498.50;;;18.25;100.00
59787;BME280;45672;51.612;5.536;2023-07-31T11:23:03;100495.59;;;18.34;100.00
59787;BME280;45672;51.612;5.536;2023-07-31T11:25:32;100490.31;;;18.46;100.00
59787;BME280;45672;51.612;5.536;2023-07-31T11:28:05;100489.66;;;18.57;100.00
59787;BME280;45672;51.612;5.536;2023-07-31T11:30:31;100490.91;;;18.54;100.00
59787;BME280;45672;51.612;5.536;2023-07-31T11:32:56;100496.75;;;18.44;100.00
59787;BME280;45672;51.612;5.536;2023-07-31T11:35:21;100487.88;;;18.37;100.00
59787;BME280;45672;51.612;5.536;2023-07-31T11:37:47;100496.81;;;18.38;100.00
59787;BME280;45672;51.612;5.536;2023-07-31T11:40:14;100492.25;;;18.32;100.00
59787;BME280;45672;51.612;5.536;2023-07-31T11:42:39;100488.34;;;18.27;100.00
59787;BME280;45672;51.612;5.536;2023-07-31T11:45:06;100483.34;;;18.38;100.00
59787;BME280;45672;51.612;5.536;2023-07-31T11:47:33;100483.47;;;18.50;100.00
59787;BME280;45672;51.612;5.536;2023-07-31T11:50:03;100481.31;;;18.65;100.00
59787;BME280;45672;51.612;5.536;2023-07-31T11:52:32;100479.16;;;18.74;100.00
59787;BME280;45672;51.612;5.536;2023-07-31T11:54:59;100487.47;;;18.72;100.00
59787;BME280;45672;51.612;5.536;2023-07-31T11:57:25;100476.72;;;18.66;100.00
59787;BME280;45672;51.612;5.536;2023-07-31T11:59:51;100467.59;;;18.67;100.00
59787;BME280;45672;51.612;5.536;2023-07-31T12:02:17;100479.97;;;18.74;100.00
59787;BME280;45672;51.612;5.536;2023-07-31T12:04:43;100469.59;;;18.78;100.00
59787;BME280;45672;51.612;5.536;2023-07-31T12:07:08;100473.28;;;18.84;100.00
59787;BME280;45672;51.612;5.536;2023-07-31T12:09:34;100475.59;;;18.80;100.00
59787;BME280;45672;51.612;5.536;2023-07-31T12:11:59;100485.38;;;18.74;100.00
59787;BME280;45672;51.612;5.536;2023-07-31T12:14:26;100468.22;;;18.69;100.00
59787;BME280;45672;51.612;5.536;2023-07-31T12:17:00;100479.13;;;18.81;100.00
59787;BME280;45672;51.612;5.536;2023-07-31T12:19:26;100488.22;;;18.86;100.00
59787;BME280;45672;51.612;5.536;2023-07-31T12:21:55;100482.69;;;18.74;100.00
59787;BME280;45672;51.612;5.536;2023-07-31T12:24:20;100485.38;;;18.74;100.00
59787;BME280;45672;51.612;5.536;2023-07-31T12:26:46;100477.47;;;18.80;100.00
59787;BME280;45672;51.612;5.536;2023-07-31T12:29:14;100476.75;;;18.98;100.00
59787;BME280;45672;51.612;5.536;2023-07-31T12:31:41;100463.53;;;19.15;100.00
59787;BME280;45672;51.612;5.536;2023-07-31T12:34:15;100462.81;;;19.26;100.00
59787;BME280;45672;51.612;5.536;2023-07-31T12:36:42;100468.50;;;19.18;100.00
59787;BME280;45672;51.612;5.536;2023-07-31T12:39:08;100466.50;;;19.06;100.00
59787;BME280;45672;51.612;5.536;2023-07-31T12:41:33;100465.31;;;19.02;100.00
59787;BME280;45672;51.612;5.536;2023-07-31T12:43:59;100448.41;;;18.82;100.00
59787;BME280;45672;51.612;5.536;2023-07-31T12:46:24;100457.53;;;18.87;100.00
59787;BME280;45672;51.612;5.536;2023-07-31T12:48:50;100452.53;;;18.91;100.00
59787;BME280;45672;51.612;5.536;2023-07-31T12:51:15;100454.19;;;18.92;100.00